createdAt,value
2022-08-17T00:02:26.059Z,326.67
2022-08-17T00:04:55.197Z,326.05
2022-08-17T00:07:22.416Z,331.80
2022-08-17T00:09:49.249Z,332.70
2022-08-17T00:12:42.595Z,338.27
2022-08-17T00:15:03.805Z,333.42
2022-08-17T00:17:30.417Z,334.65
2022-08-17T00:19:57.064Z,337.08
2022-08-17T00:22:34.028Z,329.30
2022-08-17T00:25:09.998Z,328.27
2022-08-17T00:27:36.934Z,332.00
2022-08-17T00:30:05.795Z,337.15
2022-08-17T00:33:14.164Z,335.33
2022-08-17T00:35:31.756Z,336.70
2022-08-17T00:37:58.443Z,334.65
2022-08-17T00:40:25.070Z,337.77
2022-08-17T00:42:53.282Z,336.13
2022-08-17T00:45:20.401Z,337.30
2022-08-17T00:47:47.531Z,333.55
2022-08-17T00:50:18.458Z,336.48
2022-08-17T00:52:54.171Z,338.75
2022-08-17T00:55:22.545Z,340.27
2022-08-17T00:57:55.138Z,333.02
2022-08-17T01:00:29.556Z,321.88
2022-08-17T01:03:01.869Z,325.92
2022-08-17T01:05:31.589Z,336.02
2022-08-17T01:08:00.247Z,334.07
2022-08-17T01:10:58.443Z,336.80
2022-08-17T01:13:40.751Z,333.65
2022-08-17T01:16:24.360Z,330.17
2022-08-17T01:18:56.817Z,333.13
2022-08-17T01:22:01.290Z,330.10
2022-08-17T01:24:27.991Z,334.40
2022-08-17T01:26:56.607Z,342.27
2022-08-17T01:29:25.425Z,339.67
2022-08-17T01:31:58.724Z,339.55
2022-08-17T01:34:32.763Z,334.35
2022-08-17T01:37:10.420Z,333.77
2022-08-17T01:39:59.036Z,339.90
2022-08-17T01:42:40.697Z,339.23
2022-08-17T01:45:16.696Z,333.35
2022-08-17T01:47:43.389Z,341.98
2022-08-17T01:50:15.915Z,340.38
2022-08-17T01:52:45.246Z,339.13
2022-08-17T01:55:15.020Z,333.35
2022-08-17T01:57:41.646Z,333.98
2022-08-17T02:00:10.682Z,326.70
2022-08-17T02:02:38.013Z,325.88
2022-08-17T02:05:05.307Z,323.03
2022-08-17T02:07:32.211Z,323.55
2022-08-17T02:10:20.331Z,324.05
2022-08-17T02:12:47.389Z,324.95
2022-08-17T02:15:15.131Z,323.30
2022-08-17T02:17:43.129Z,333.27
2022-08-17T02:20:10.247Z,335.25
2022-08-17T02:22:40.480Z,329.55
2022-08-17T02:25:09.602Z,330.05
2022-08-17T02:27:38.637Z,330.55
2022-08-17T02:30:59.177Z,335.50
2022-08-17T02:32:56.178Z,325.13
2022-08-17T02:35:23.301Z,332.10
2022-08-17T02:37:51.869Z,326.05
2022-08-17T02:40:36.003Z,334.17
2022-08-17T02:43:04.197Z,337.80
2022-08-17T02:45:30.788Z,329.20
2022-08-17T02:47:57.508Z,345.70
2022-08-17T02:50:24.994Z,347.35
2022-08-17T02:53:02.013Z,339.33
2022-08-17T02:55:37.057Z,335.33
2022-08-17T02:58:04.799Z,340.10
2022-08-17T03:00:35.449Z,338.10
2022-08-17T03:03:04.622Z,332.92
2022-08-17T03:05:33.817Z,334.70
2022-08-17T03:08:00.421Z,329.73
2022-08-17T03:10:28.129Z,333.23
2022-08-17T03:12:55.098Z,333.45
2022-08-17T03:15:26.112Z,334.60
2022-08-17T03:17:54.357Z,327.85
2022-08-17T03:20:21.657Z,313.80
2022-08-17T03:22:53.241Z,313.17
2022-08-17T03:25:34.414Z,309.23
2022-08-17T03:28:01.253Z,304.15
2022-08-17T03:30:28.572Z,300.58
2022-08-17T03:32:59.940Z,310.43
2022-08-17T03:35:30.333Z,309.55
2022-08-17T03:38:00.705Z,308.40
2022-08-17T03:40:55.463Z,316.52
2022-08-17T03:43:16.235Z,323.52
2022-08-17T03:46:01.840Z,317.23
2022-08-17T03:48:47.453Z,323.02
2022-08-17T03:51:38.238Z,319.33
2022-08-17T03:54:24.203Z,308.27
2022-08-17T03:57:07.263Z,314.95
2022-08-17T03:59:34.446Z,309.13
2022-08-17T04:02:11.038Z,303.23
2022-08-17T04:04:39.111Z,311.48
2022-08-17T04:07:06.256Z,307.10
2022-08-17T04:09:32.922Z,298.58
2022-08-17T04:12:04.523Z,297.50
2022-08-17T04:14:50.813Z,305.13
2022-08-17T04:17:22.774Z,296.10
2022-08-17T04:19:49.416Z,303.92
2022-08-17T04:22:29.744Z,303.27
2022-08-17T04:25:06.338Z,303.30
2022-08-17T04:27:32.968Z,302.30
2022-08-17T04:29:59.705Z,297.15
2022-08-17T04:33:05.527Z,294.33
2022-08-17T04:35:17.336Z,290.25
2022-08-17T04:37:45.234Z,291.00
2022-08-17T04:40:30.325Z,290.15
2022-08-17T04:43:05.541Z,285.98
2022-08-17T04:45:32.723Z,290.25
2022-08-17T04:48:00.453Z,288.45
2022-08-17T04:50:27.569Z,281.65
2022-08-17T04:52:58.061Z,286.40
2022-08-17T04:55:24.954Z,279.90
2022-08-17T04:57:51.569Z,275.50
2022-08-17T05:00:18.708Z,285.88
2022-08-17T05:02:49.570Z,278.30
2022-08-17T05:05:27.668Z,297.70
2022-08-17T05:07:56.537Z,302.10
2022-08-17T05:10:24.941Z,295.27
2022-08-17T05:13:09.701Z,289.77
2022-08-17T05:15:38.980Z,284.50
2022-08-17T05:18:12.037Z,293.50
2022-08-17T05:20:40.268Z,293.38
2022-08-17T05:23:10.114Z,280.65
2022-08-17T05:25:41.313Z,286.30
2022-08-17T05:28:08.720Z,276.30
2022-08-17T05:30:38.227Z,280.65
2022-08-17T05:33:08.017Z,277.83
2022-08-17T05:35:37.943Z,281.77
2022-08-17T05:38:05.106Z,284.40
2022-08-17T05:40:32.655Z,290.53
2022-08-17T05:43:12.843Z,283.03
2022-08-17T05:45:55.400Z,290.48
2022-08-17T05:48:39.190Z,295.08
2022-08-17T05:51:28.356Z,283.87
2022-08-17T05:54:05.400Z,290.20
2022-08-17T05:56:48.697Z,283.33
2022-08-17T05:59:48.314Z,272.03
2022-08-17T06:02:24.066Z,284.10
2022-08-17T06:04:59.646Z,276.05
2022-08-17T06:07:35.128Z,274.02
2022-08-17T06:10:31.034Z,270.65
2022-08-17T06:13:09.431Z,287.00
2022-08-17T06:15:47.644Z,285.83
2022-08-17T06:18:18.921Z,286.70
2022-08-17T06:21:00.384Z,289.52
2022-08-17T06:23:39.101Z,277.60
2022-08-17T06:26:16.050Z,277.55
2022-08-17T06:28:59.005Z,283.92
2022-08-17T06:31:29.156Z,271.67
2022-08-17T06:33:58.018Z,266.53
2022-08-17T06:36:35.859Z,265.00
2022-08-17T06:39:17.504Z,257.00
2022-08-17T06:42:54.619Z,252.55
2022-08-17T06:45:14.320Z,262.52
2022-08-17T06:47:58.859Z,269.98
2022-08-17T06:50:31.414Z,272.90
2022-08-17T06:53:03.488Z,270.52
2022-08-17T06:55:41.340Z,265.33
2022-08-17T06:58:16.141Z,264.95
2022-08-17T07:00:47.004Z,286.52
2022-08-17T07:03:21.017Z,296.85
2022-08-17T07:06:08.330Z,295.48
2022-08-17T07:08:55.153Z,291.08
2022-08-17T07:11:56.395Z,272.52
2022-08-17T07:14:37.862Z,261.30
2022-08-17T07:17:14.058Z,252.35
2022-08-17T07:19:44.026Z,258.27
2022-08-17T07:22:53.634Z,249.15
2022-08-17T07:25:22.119Z,255.50
2022-08-17T07:27:53.034Z,238.95
2022-08-17T07:30:22.639Z,239.82
2022-08-17T07:33:13.747Z,253.57
2022-08-17T07:35:46.277Z,247.18
2022-08-17T07:38:24.261Z,239.48
2022-08-17T07:41:05.370Z,235.80
2022-08-17T07:43:41.056Z,227.33
2022-08-17T07:46:41.288Z,215.00
2022-08-17T07:49:11.301Z,200.17
2022-08-17T07:51:53.636Z,197.67
2022-08-17T07:54:23.839Z,169.75
2022-08-17T07:56:54.676Z,164.65
2022-08-17T07:59:25.602Z,176.10
2022-08-17T08:01:58.286Z,159.98
2022-08-17T08:05:06.594Z,158.27
2022-08-17T08:07:50.389Z,166.52
2022-08-17T08:10:32.370Z,167.45
2022-08-17T08:13:07.675Z,145.73
2022-08-17T08:15:53.855Z,131.68
2022-08-17T08:18:53.313Z,118.75
2022-08-17T08:21:35.231Z,114.97
2022-08-17T08:24:07.723Z,104.60
2022-08-17T08:26:44.392Z,89.70
2022-08-17T08:29:29.322Z,91.90
2022-08-17T08:31:58.965Z,80.00
2022-08-17T08:35:01.215Z,74.65
2022-08-17T08:37:47.293Z,59.20
2022-08-17T08:40:41.219Z,49.85
2022-08-17T08:43:49.571Z,42.85
2022-08-17T08:46:47.123Z,43.13
2022-08-17T08:49:19.716Z,35.95
2022-08-17T08:51:55.952Z,37.10
2022-08-17T08:54:28.541Z,38.63
2022-08-17T08:57:23.894Z,51.20
2022-08-17T09:00:00.052Z,49.80
2022-08-17T09:03:02.979Z,44.70
2022-08-17T09:05:44.709Z,45.20
2022-08-17T09:08:36.598Z,38.65
2022-08-17T09:11:22.491Z,36.63
2022-08-17T09:14:28.221Z,32.23
2022-08-17T09:17:07.515Z,37.38
2022-08-17T09:20:01.056Z,45.33
2022-08-17T09:22:36.272Z,39.38
2022-08-17T09:25:26.951Z,38.75
2022-08-17T09:28:05.613Z,44.95
2022-08-17T09:30:44.137Z,35.33
2022-08-17T09:33:13.921Z,46.97
2022-08-17T09:35:49.497Z,52.30
2022-08-17T09:38:40.490Z,35.42
2022-08-17T09:41:30.261Z,33.53
2022-08-17T09:44:23.309Z,31.53
2022-08-17T09:46:50.517Z,32.60
2022-08-17T09:49:37.549Z,31.13
2022-08-17T09:52:25.911Z,27.33
2022-08-17T09:54:54.589Z,22.52
2022-08-17T09:57:32.312Z,22.17
2022-08-17T10:00:13.409Z,21.77
2022-08-17T10:03:04.765Z,15.75
2022-08-17T10:05:56.305Z,17.15
2022-08-17T10:08:36.658Z,15.18
2022-08-17T10:11:15.411Z,14.63
2022-08-17T10:14:37.282Z,13.30
2022-08-17T10:17:19.567Z,13.50
2022-08-17T10:19:59.281Z,18.42
2022-08-17T10:22:53.446Z,13.07
2022-08-17T10:25:56.474Z,13.55
2022-08-17T10:28:30.110Z,12.98
2022-08-17T10:31:30.954Z,11.35
2022-08-17T10:34:17.320Z,10.37
2022-08-17T10:36:47.957Z,13.23
2022-08-17T10:39:22.066Z,13.82
2022-08-17T10:41:53.878Z,9.85
2022-08-17T10:44:41.336Z,15.02
2022-08-17T10:47:10.436Z,9.57
2022-08-17T10:49:39.458Z,10.00
2022-08-17T10:52:26.267Z,11.77
2022-08-17T10:54:56.708Z,10.03
2022-08-17T10:57:34.573Z,11.63
2022-08-17T11:00:05.904Z,12.23
2022-08-17T11:02:49.346Z,11.57
2022-08-17T11:05:46.627Z,10.70
2022-08-17T11:08:21.896Z,9.48
2022-08-17T11:11:10.251Z,8.80
2022-08-17T11:13:45.658Z,9.05
2022-08-17T11:16:12.369Z,11.52
2022-08-17T11:19:10.025Z,7.63
2022-08-17T11:21:47.447Z,7.60
2022-08-17T11:24:36.112Z,8.45
2022-08-17T11:27:29.436Z,9.57
2022-08-17T11:30:04.793Z,7.28
2022-08-17T11:32:52.058Z,6.45
2022-08-17T11:35:21.420Z,9.73
2022-08-17T11:38:20.441Z,5.57
2022-08-17T11:41:10.354Z,5.65
2022-08-17T11:43:58.531Z,7.80
2022-08-17T11:46:59.292Z,10.05
2022-08-17T11:50:12.197Z,5.53
2022-08-17T11:52:45.971Z,5.15
2022-08-17T11:55:36.356Z,4.53
2022-08-17T11:58:23.968Z,7.57
2022-08-17T12:00:56.596Z,6.18
2022-08-17T12:03:26.372Z,7.35
2022-08-17T12:06:05.247Z,6.53
2022-08-17T12:08:33.983Z,5.57
2022-08-17T12:11:07.307Z,7.07
2022-08-17T12:13:43.500Z,5.18
2022-08-17T12:16:18.562Z,6.78
2022-08-17T12:18:58.510Z,7.03
2022-08-17T12:21:45.066Z,5.65
2022-08-17T12:24:29.287Z,5.47
2022-08-17T12:26:59.434Z,6.60
2022-08-17T12:29:35.129Z,7.40
2022-08-17T12:32:06.831Z,6.73
2022-08-17T12:34:42.997Z,8.70
2022-08-17T12:37:18.571Z,11.27
2022-08-17T12:39:55.375Z,8.27
2022-08-17T12:42:34.820Z,9.73
2022-08-17T12:45:01.493Z,9.43
2022-08-17T12:47:31.856Z,10.65
2022-08-17T12:50:08.156Z,12.80
2022-08-17T12:52:59.700Z,13.52
2022-08-17T12:55:32.464Z,10.88
2022-08-17T12:58:01.863Z,8.98
2022-08-17T13:00:34.710Z,8.30
2022-08-17T13:03:07.684Z,14.38
2022-08-17T13:06:00.723Z,10.67
2022-08-17T13:08:36.053Z,12.33
2022-08-17T13:11:06.360Z,12.32
2022-08-17T13:13:35.962Z,16.05
2022-08-17T13:16:27.517Z,14.73
2022-08-17T13:19:09.282Z,11.05
2022-08-17T13:21:37.865Z,12.93
2022-08-17T13:24:19.450Z,8.68
2022-08-17T13:26:49.030Z,12.85
2022-08-17T13:29:29.351Z,11.83
2022-08-17T13:32:16.049Z,8.70
2022-08-17T13:35:13.766Z,7.55
2022-08-17T13:37:42.636Z,8.45
2022-08-17T13:40:09.391Z,7.78
2022-08-17T13:42:52.141Z,7.53
2022-08-17T13:45:36.315Z,8.38
2022-08-17T13:48:15.885Z,8.10
2022-08-17T13:50:48.225Z,12.20
2022-08-17T13:53:31.193Z,9.15
2022-08-17T13:56:02.425Z,8.35
2022-08-17T13:58:33.152Z,8.40
2022-08-17T14:01:39.166Z,8.38
2022-08-17T14:04:17.999Z,10.27
2022-08-17T14:06:55.837Z,9.68
2022-08-17T14:09:28.151Z,10.18
2022-08-17T14:11:56.791Z,9.80
2022-08-17T14:14:24.506Z,8.68
2022-08-17T14:16:54.618Z,8.60
2022-08-17T14:19:24.535Z,8.80
2022-08-17T14:21:58.840Z,7.85
2022-08-17T14:24:25.439Z,9.07
2022-08-17T14:26:52.979Z,9.48
2022-08-17T14:29:24.697Z,8.88
2022-08-17T14:31:54.353Z,7.82
2022-08-17T14:34:22.198Z,7.85
2022-08-17T14:36:48.909Z,8.10
2022-08-17T14:39:17.057Z,8.70
2022-08-17T14:41:43.976Z,7.75
2022-08-17T14:44:13.055Z,7.17
2022-08-17T14:46:41.481Z,7.73
2022-08-17T14:49:12.064Z,7.78
2022-08-17T14:51:43.876Z,10.00
2022-08-17T14:54:12.079Z,9.38
2022-08-17T14:57:23.118Z,9.30
2022-08-17T14:59:45.676Z,9.35
2022-08-17T15:02:13.132Z,9.10
2022-08-17T15:04:44.965Z,9.00
2022-08-17T15:07:12.290Z,10.45
2022-08-17T15:09:39.085Z,10.20
2022-08-17T15:12:06.742Z,8.48
2022-08-17T15:14:35.433Z,9.15
2022-08-17T15:17:05.618Z,11.40
2022-08-17T15:19:32.257Z,10.65
2022-08-17T15:21:58.810Z,8.48
2022-08-17T15:24:25.515Z,9.38
2022-08-17T15:26:52.151Z,10.30
2022-08-17T15:29:18.719Z,9.00
2022-08-17T15:31:45.346Z,9.73
2022-08-17T15:34:11.983Z,10.70
2022-08-17T15:36:49.102Z,10.27
2022-08-17T15:39:19.569Z,11.82
2022-08-17T15:41:47.376Z,12.52
2022-08-17T15:44:32.537Z,14.02
2022-08-17T15:47:02.085Z,15.20
2022-08-17T15:49:28.691Z,12.00
2022-08-17T15:51:55.319Z,10.82
2022-08-17T15:54:22.764Z,12.38
2022-08-17T15:56:50.204Z,11.02
2022-08-17T15:59:16.889Z,11.10
2022-08-17T16:03:01.129Z,11.77
2022-08-17T16:04:31.733Z,11.40
2022-08-17T16:06:59.782Z,12.18
2022-08-17T16:09:26.945Z,12.38
2022-08-17T16:11:56.165Z,10.43
2022-08-17T16:14:29.505Z,11.35
2022-08-17T16:17:00.803Z,10.88
2022-08-17T16:19:27.426Z,11.43
2022-08-17T16:21:54.059Z,12.55
2022-08-17T16:24:20.674Z,9.07
2022-08-17T16:26:47.363Z,10.30
2022-08-17T16:29:14.072Z,11.10
2022-08-17T16:31:41.873Z,11.52
2022-08-17T16:34:15.694Z,10.93
2022-08-17T16:36:53.608Z,9.77
2022-08-17T16:39:28.084Z,9.73
2022-08-17T16:41:56.171Z,9.70
2022-08-17T16:44:23.528Z,13.43
2022-08-17T16:46:50.509Z,9.30
2022-08-17T16:49:35.146Z,8.95
2022-08-17T16:52:10.691Z,8.77
2022-08-17T16:54:39.525Z,10.30
2022-08-17T16:57:06.389Z,10.20
2022-08-17T16:59:40.981Z,8.60
2022-08-17T17:02:13.156Z,10.37
2022-08-17T17:04:57.865Z,9.48
2022-08-17T17:07:40.174Z,8.50
2022-08-17T17:10:14.741Z,8.40
2022-08-17T17:13:03.236Z,9.18
2022-08-17T17:15:37.398Z,10.38
2022-08-17T17:18:06.820Z,11.70
2022-08-17T17:20:54.077Z,8.68
2022-08-17T17:23:41.882Z,7.40
2022-08-17T17:26:35.156Z,8.20
2022-08-17T17:29:07.938Z,9.73
2022-08-17T17:31:48.054Z,8.38
2022-08-17T17:34:16.594Z,9.80
2022-08-17T17:36:50.179Z,10.10
2022-08-17T17:39:31.787Z,9.55
2022-08-17T18:33:11.042Z,14.68
2022-08-17T18:35:58.787Z,13.15
2022-08-17T18:39:11.846Z,11.52
2022-08-17T18:41:50.593Z,15.60
2022-08-17T18:44:37.753Z,11.40
2022-08-17T18:47:13.969Z,11.15
2022-08-17T18:49:43.209Z,12.00
2022-08-17T18:52:24.712Z,16.55
2022-08-17T18:55:14.447Z,14.45
2022-08-17T18:58:11.744Z,10.63
2022-08-17T19:04:12.204Z,12.65
2022-08-17T19:19:35.140Z,11.48
2022-08-17T19:22:27.024Z,10.43
2022-08-17T19:25:17.037Z,8.50
2022-08-17T19:30:41.428Z,10.80
2022-08-17T19:33:10.643Z,9.45
2022-08-17T19:35:47.526Z,10.75
2022-08-17T19:38:34.213Z,9.68
2022-08-17T19:41:32.926Z,13.13
2022-08-17T19:44:21.726Z,14.20
2022-08-17T19:47:53.190Z,9.52
2022-08-17T19:56:46.179Z,10.48
2022-08-17T19:59:12.810Z,9.13
2022-08-17T20:02:03.361Z,12.27
2022-08-17T20:04:32.460Z,11.02
2022-08-17T20:07:17.839Z,12.82
2022-08-17T20:09:51.601Z,14.10
2022-08-17T20:12:22.171Z,12.95
2022-08-17T20:15:04.985Z,10.15
2022-08-17T20:48:36.473Z,7.55
2022-08-17T21:03:13.337Z,8.10
2022-08-17T21:21:17.558Z,7.63
2022-08-17T21:24:06.699Z,8.43
2022-08-17T21:26:50.762Z,8.52
2022-08-17T21:32:30.085Z,8.90
2022-08-17T21:38:02.994Z,8.13
2022-08-17T21:40:32.276Z,7.93
2022-08-17T21:46:02.644Z,8.18
2022-08-17T21:48:32.429Z,7.47
2022-08-17T21:51:18.416Z,8.10
2022-08-17T21:53:55.895Z,10.00
2022-08-17T21:56:29.532Z,9.45
2022-08-17T21:59:06.332Z,7.97
2022-08-17T22:01:43.334Z,9.32
2022-08-17T22:18:47.962Z,7.47
2022-08-17T22:24:34.491Z,7.03
2022-08-17T22:27:11.013Z,7.43
2022-08-17T22:29:57.580Z,8.05
2022-08-17T22:32:34.588Z,8.20
2022-08-17T22:35:34.758Z,11.18
2022-08-17T22:41:17.633Z,10.13
2022-08-17T22:43:44.761Z,8.65
2022-08-17T22:46:12.434Z,7.88
2022-08-17T22:48:48.589Z,9.02
2022-08-17T22:51:21.305Z,8.77
2022-08-17T22:54:10.203Z,8.30
2022-08-17T22:56:55.842Z,10.27
2022-08-17T22:59:36.298Z,9.35
2022-08-17T23:02:21.540Z,9.25
2022-08-17T23:05:13.842Z,7.72
2022-08-17T23:07:44.159Z,7.05
2022-08-17T23:10:12.865Z,9.88
2022-08-17T23:12:39.877Z,7.13
2022-08-17T23:15:16.726Z,7.70
2022-08-17T23:17:45.290Z,8.50
2022-08-17T23:20:14.134Z,7.95
2022-08-17T23:22:51.328Z,7.78
2022-08-17T23:25:26.447Z,7.93
2022-08-17T23:27:53.674Z,9.55
2022-08-17T23:30:20.483Z,9.80
2022-08-17T23:32:53.639Z,9.35
2022-08-17T23:35:20.889Z,8.65
2022-08-17T23:38:08.994Z,9.30
2022-08-17T23:40:35.744Z,11.80
2022-08-17T23:43:11.514Z,9.35
2022-08-17T23:45:53.853Z,9.23
2022-08-17T23:48:36.159Z,9.02
2022-08-17T23:51:08.817Z,10.18
2022-08-17T23:53:37.200Z,8.65
2022-08-17T23:56:10.275Z,8.50
2022-08-17T23:58:39.030Z,7.97
